sensor_id;sensor_type;location;lat;lon;timestamp;P1;durP1;ratioP1;P2;durP2;ratioP2
55076;SDS011;40971;44.702;11.030;2023-02-01T00:01:44;6.68;;;3.50;;
55076;SDS011;40971;44.702;11.030;2023-02-01T00:11:45;4.43;;;2.90;;
55076;SDS011;40971;44.702;11.030;2023-02-01T00:21:45;6.60;;;3.78;;
55076;SDS011;40971;44.702;11.030;2023-02-01T00:31:46;3.13;;;1.80;;
55076;SDS011;40971;44.702;11.030;2023-02-01T00:41:46;3.57;;;2.70;;
55076;SDS011;40971;44.702;11.030;2023-02-01T00:51:47;6.82;;;3.30;;
55076;SDS011;40971;44.702;11.030;2023-02-01T01:01:47;7.93;;;3.72;;
55076;SDS011;40971;44.702;11.030;2023-02-01T01:11:48;3.10;;;2.67;;
55076;SDS011;40971;44.702;11.030;2023-02-01T01:21:48;2.50;;;2.08;;
55076;SDS011;40971;44.702;11.030;2023-02-01T01:31:49;4.53;;;2.22;;
55076;SDS011;40971;44.702;11.030;2023-02-01T01:41:49;3.25;;;1.88;;
55076;SDS011;40971;44.702;11.030;2023-02-01T01:51:54;1.85;;;1.63;;
55076;SDS011;40971;44.702;11.030;2023-02-01T02:01:58;5.30;;;2.40;;
55076;SDS011;40971;44.702;11.030;2023-02-01T02:11:58;3.50;;;2.80;;
55076;SDS011;40971;44.702;11.030;2023-02-01T02:53:02;2.60;;;2.20;;
55076;SDS011;40971;44.702;11.030;2023-02-01T03:03:25;3.97;;;2.55;;
55076;SDS011;40971;44.702;11.030;2023-02-01T03:34:00;2.97;;;1.58;;
55076;SDS011;40971;44.702;11.030;2023-02-01T03:54:04;3.38;;;1.98;;
55076;SDS011;40971;44.702;11.030;2023-02-01T04:04:09;4.97;;;2.67;;
55076;SDS011;40971;44.702;11.030;2023-02-01T04:14:09;4.00;;;1.63;;
55076;SDS011;40971;44.702;11.030;2023-02-01T04:24:10;2.80;;;2.15;;
55076;SDS011;40971;44.702;11.030;2023-02-01T04:34:10;1.42;;;1.30;;
55076;SDS011;40971;44.702;11.030;2023-02-01T04:44:15;3.97;;;2.85;;
55076;SDS011;40971;44.702;11.030;2023-02-01T04:54:16;4.28;;;2.33;;
55076;SDS011;40971;44.702;11.030;2023-02-01T05:04:17;4.30;;;2.13;;
55076;SDS011;40971;44.702;11.030;2023-02-01T05:14:20;3.17;;;1.88;;
55076;SDS011;40971;44.702;11.030;2023-02-01T05:24:20;3.20;;;2.35;;
55076;SDS011;40971;44.702;11.030;2023-02-01T05:34:21;4.93;;;2.35;;
55076;SDS011;40971;44.702;11.030;2023-02-01T05:44:21;1.80;;;1.42;;
55076;SDS011;40971;44.702;11.030;2023-02-01T05:54:22;3.03;;;2.13;;
55076;SDS011;40971;44.702;11.030;2023-02-01T06:04:22;2.05;;;1.90;;
55076;SDS011;40971;44.702;11.030;2023-02-01T06:14:23;3.83;;;2.38;;
55076;SDS011;40971;44.702;11.030;2023-02-01T06:24:24;3.15;;;2.85;;
55076;SDS011;40971;44.702;11.030;2023-02-01T06:34:24;2.38;;;1.70;;
55076;SDS011;40971;44.702;11.030;2023-02-01T06:44:25;2.60;;;1.85;;
55076;SDS011;40971;44.702;11.030;2023-02-01T06:54:26;4.00;;;2.95;;
55076;SDS011;40971;44.702;11.030;2023-02-01T07:04:27;3.35;;;1.50;;
55076;SDS011;40971;44.702;11.030;2023-02-01T07:14:27;8.13;;;3.55;;
55076;SDS011;40971;44.702;11.030;2023-02-01T07:24:28;4.47;;;3.05;;
55076;SDS011;40971;44.702;11.030;2023-02-01T07:34:29;3.77;;;2.33;;
55076;SDS011;40971;44.702;11.030;2023-02-01T07:44:30;4.22;;;2.45;;
55076;SDS011;40971;44.702;11.030;2023-02-01T07:54:31;6.53;;;3.83;;
55076;SDS011;40971;44.702;11.030;2023-02-01T08:04:31;6.57;;;3.50;;
55076;SDS011;40971;44.702;11.030;2023-02-01T08:14:32;6.10;;;3.30;;
55076;SDS011;40971;44.702;11.030;2023-02-01T08:24:33;13.70;;;5.37;;
55076;SDS011;40971;44.702;11.030;2023-02-01T08:34:34;6.13;;;3.80;;
55076;SDS011;40971;44.702;11.030;2023-02-01T08:44:34;6.93;;;4.63;;
55076;SDS011;40971;44.702;11.030;2023-02-01T08:54:34;5.35;;;3.83;;
55076;SDS011;40971;44.702;11.030;2023-02-01T09:04:35;5.60;;;3.70;;
55076;SDS011;40971;44.702;11.030;2023-02-01T09:14:35;7.32;;;5.22;;
55076;SDS011;40971;44.702;11.030;2023-02-01T09:24:36;10.83;;;4.57;;
55076;SDS011;40971;44.702;11.030;2023-02-01T09:34:36;11.60;;;5.07;;
55076;SDS011;40971;44.702;11.030;2023-02-01T09:54:42;9.48;;;6.07;;
55076;SDS011;40971;44.702;11.030;2023-02-01T10:04:49;14.43;;;7.25;;
55076;SDS011;40971;44.702;11.030;2023-02-01T10:14:52;10.00;;;6.70;;
55076;SDS011;40971;44.702;11.030;2023-02-01T10:35:17;11.60;;;7.85;;
55076;SDS011;40971;44.702;11.030;2023-02-01T10:45:22;14.25;;;8.15;;
55076;SDS011;40971;44.702;11.030;2023-02-01T10:55:35;14.35;;;9.18;;
55076;SDS011;40971;44.702;11.030;2023-02-01T11:05:45;16.65;;;8.45;;
55076;SDS011;40971;44.702;11.030;2023-02-01T11:15:46;14.85;;;7.70;;
55076;SDS011;40971;44.702;11.030;2023-02-01T11:25:56;14.88;;;7.85;;
55076;SDS011;40971;44.702;11.030;2023-02-01T11:46:35;20.08;;;10.60;;
55076;SDS011;40971;44.702;11.030;2023-02-01T11:57:00;19.92;;;9.90;;
55076;SDS011;40971;44.702;11.030;2023-02-01T12:07:05;17.10;;;9.45;;
55076;SDS011;40971;44.702;11.030;2023-02-01T12:48:32;19.40;;;7.53;;
55076;SDS011;40971;44.702;11.030;2023-02-01T12:58:44;17.10;;;8.63;;
55076;SDS011;40971;44.702;11.030;2023-02-01T13:08:50;17.88;;;8.15;;
55076;SDS011;40971;44.702;11.030;2023-02-01T13:19:18;13.75;;;6.43;;
55076;SDS011;40971;44.702;11.030;2023-02-01T13:29:35;13.18;;;5.82;;
55076;SDS011;40971;44.702;11.030;2023-02-01T13:39:46;14.25;;;6.80;;
55076;SDS011;40971;44.702;11.030;2023-02-01T13:49:51;14.45;;;6.78;;
55076;SDS011;40971;44.702;11.030;2023-02-01T13:59:53;14.65;;;6.32;;
55076;SDS011;40971;44.702;11.030;2023-02-01T14:20:47;13.85;;;6.47;;
55076;SDS011;40971;44.702;11.030;2023-02-01T14:30:53;13.50;;;5.38;;
55076;SDS011;40971;44.702;11.030;2023-02-01T14:40:56;9.52;;;4.75;;
55076;SDS011;40971;44.702;11.030;2023-02-01T14:51:17;11.82;;;5.65;;
55076;SDS011;40971;44.702;11.030;2023-02-01T15:01:32;13.10;;;6.18;;
55076;SDS011;40971;44.702;11.030;2023-02-01T15:22:00;10.88;;;6.03;;
55076;SDS011;40971;44.702;11.030;2023-02-01T15:32:01;12.30;;;6.07;;
55076;SDS011;40971;44.702;11.030;2023-02-01T15:42:08;14.38;;;5.97;;
55076;SDS011;40971;44.702;11.030;2023-02-01T15:52:16;9.85;;;5.20;;
55076;SDS011;40971;44.702;11.030;2023-02-01T16:02:36;11.00;;;5.85;;
55076;SDS011;40971;44.702;11.030;2023-02-01T16:22:41;9.23;;;4.68;;
55076;SDS011;40971;44.702;11.030;2023-02-01T16:42:42;9.90;;;5.20;;
55076;SDS011;40971;44.702;11.030;2023-02-01T16:52:42;8.63;;;4.50;;
55076;SDS011;40971;44.702;11.030;2023-02-01T17:02:44;8.27;;;4.88;;
55076;SDS011;40971;44.702;11.030;2023-02-01T17:12:45;6.90;;;2.78;;
55076;SDS011;40971;44.702;11.030;2023-02-01T17:22:46;8.93;;;3.97;;
55076;SDS011;40971;44.702;11.030;2023-02-01T17:32:46;9.20;;;4.03;;
55076;SDS011;40971;44.702;11.030;2023-02-01T17:42:47;8.53;;;3.83;;
55076;SDS011;40971;44.702;11.030;2023-02-01T17:52:49;6.38;;;2.92;;
55076;SDS011;40971;44.702;11.030;2023-02-01T18:02:49;5.43;;;2.95;;
55076;SDS011;40971;44.702;11.030;2023-02-01T18:12:49;6.60;;;3.90;;
55076;SDS011;40971;44.702;11.030;2023-02-01T18:22:50;5.90;;;3.93;;
55076;SDS011;40971;44.702;11.030;2023-02-01T18:32:51;6.33;;;2.97;;
55076;SDS011;40971;44.702;11.030;2023-02-01T18:42:51;6.03;;;3.90;;
55076;SDS011;40971;44.702;11.030;2023-02-01T19:02:53;5.57;;;2.55;;
55076;SDS011;40971;44.702;11.030;2023-02-01T19:12:54;8.30;;;4.15;;
55076;SDS011;40971;44.702;11.030;2023-02-01T19:22:54;9.05;;;5.55;;
55076;SDS011;40971;44.702;11.030;2023-02-01T19:32:55;6.47;;;3.30;;
55076;SDS011;40971;44.702;11.030;2023-02-01T19:42:55;7.65;;;4.57;;
55076;SDS011;40971;44.702;11.030;2023-02-01T19:52:56;6.82;;;3.60;;
55076;SDS011;40971;44.702;11.030;2023-02-01T20:02:56;6.35;;;4.22;;
55076;SDS011;40971;44.702;11.030;2023-02-01T20:12:58;5.90;;;3.28;;
55076;SDS011;40971;44.702;11.030;2023-02-01T20:22:58;8.95;;;5.50;;
55076;SDS011;40971;44.702;11.030;2023-02-01T20:32:59;8.18;;;4.38;;
55076;SDS011;40971;44.702;11.030;2023-02-01T20:42:59;9.10;;;5.22;;
55076;SDS011;40971;44.702;11.030;2023-02-01T20:53:00;9.18;;;4.57;;
55076;SDS011;40971;44.702;11.030;2023-02-01T21:03:00;8.93;;;6.30;;
55076;SDS011;40971;44.702;11.030;2023-02-01T21:13:01;9.20;;;5.25;;
55076;SDS011;40971;44.702;11.030;2023-02-01T21:23:02;11.43;;;5.68;;
55076;SDS011;40971;44.702;11.030;2023-02-01T21:33:03;13.80;;;5.57;;
55076;SDS011;40971;44.702;11.030;2023-02-01T21:43:04;7.43;;;4.63;;
55076;SDS011;40971;44.702;11.030;2023-02-01T21:53:04;10.20;;;6.20;;
55076;SDS011;40971;44.702;11.030;2023-02-01T22:13:06;7.65;;;4.47;;
55076;SDS011;40971;44.702;11.030;2023-02-01T22:23:08;5.70;;;4.60;;
55076;SDS011;40971;44.702;11.030;2023-02-01T22:33:09;11.73;;;5.75;;
55076;SDS011;40971;44.702;11.030;2023-02-01T22:43:12;10.60;;;5.13;;
55076;SDS011;40971;44.702;11.030;2023-02-01T22:53:12;6.47;;;4.63;;
55076;SDS011;40971;44.702;11.030;2023-02-01T23:03:13;7.13;;;4.93;;
55076;SDS011;40971;44.702;11.030;2023-02-01T23:13:13;10.90;;;6.13;;
55076;SDS011;40971;44.702;11.030;2023-02-01T23:23:14;7.50;;;5.20;;
55076;SDS011;40971;44.702;11.030;2023-02-01T23:33:14;6.97;;;3.45;;
55076;SDS011;40971;44.702;11.030;2023-02-01T23:43:15;6.07;;;4.10;;
55076;SDS011;40971;44.702;11.030;2023-02-01T23:53:34;7.90;;;4.05;;
